Time;durP1;ratioP1;P1;durP2;ratioP2;P2;SDS_P1;SDS_P2;PMS_P1;PMS_P2;Temp;Humidity;BMP_temperature;BMP_pressure;BME280_temperature;BME280_humidity;BME280_pressure;Samples;Min_cycle;Max_cycle;Signal;HPM_P1;HPM_P2
2022/09/06 00:02:18;;;;;;;32.88;20.55;;;;;;;10.35;55.78;100236.27;1691158;84;21161;-41
2022/09/06 00:04:45;;;;;;;31.75;19.02;;;;;;;10.32;55.95;100232.86;1691326;84;21567;-41
2022/09/06 00:07:12;;;;;;;31.73;19.62;;;;;;;10.28;56.16;100229.80;1720327;83;20990;-41
2022/09/06 00:09:39;;;;;;;33.63;18.60;;;;;;;10.24;56.27;100224.83;1720287;83;20993;-41
2022/09/06 00:12:07;;;;;;;34.35;18.67;;;;;;;10.19;56.36;100220.98;1691377;84;21083;-41
2022/09/06 00:14:33;;;;;;;32.10;18.48;;;;;;;10.13;56.66;100231.20;1691442;84;21184;-41
2022/09/06 00:17:03;;;;;;;31.25;18.85;;;;;;;10.12;56.92;100231.56;1720311;83;21016;-41
2022/09/06 00:19:30;;;;;;;34.83;19.07;;;;;;;10.09;57.10;100230.86;1720601;83;21084;-41
2022/09/06 00:21:57;;;;;;;31.65;17.85;;;;;;;10.05;57.15;100229.39;1720167;83;21578;-41
2022/09/06 00:24:24;;;;;;;29.63;17.15;;;;;;;10.02;57.15;100229.48;1720059;83;21054;-41
2022/09/06 00:26:51;;;;;;;29.12;17.17;;;;;;;9.98;57.04;100222.35;1720251;83;23196;-41
2022/09/06 00:29:17;;;;;;;28.98;17.05;;;;;;;9.93;57.09;100220.65;1720263;83;20954;-41
2022/09/06 00:31:44;;;;;;;31.10;17.50;;;;;;;9.88;57.29;100216.80;1720276;83;21034;-41
2022/09/06 00:34:10;;;;;;;28.85;17.20;;;;;;;9.85;57.49;100220.18;1720240;83;21015;-41
2022/09/06 00:36:37;;;;;;;29.72;17.70;;;;;;;9.82;57.69;100222.21;1720319;83;21074;-41
2022/09/06 00:39:04;;;;;;;25.52;15.98;;;;;;;9.81;57.64;100229.30;1720206;83;21134;-41
2022/09/06 00:41:32;;;;;;;30.10;16.55;;;;;;;9.78;57.70;100223.98;1720494;83;20959;-41
2022/09/06 00:43:58;;;;;;;31.07;17.80;;;;;;;9.75;57.78;100225.21;1720451;83;21023;-41
2022/09/06 00:46:29;;;;;;;30.20;16.80;;;;;;;9.70;57.84;100229.48;1720362;83;21053;-41
2022/09/06 00:49:00;;;;;;;25.82;16.67;;;;;;;9.66;58.03;100233.42;1720540;83;21062;-41
2022/09/06 00:51:27;;;;;;;28.42;17.45;;;;;;;8.21;57.88;100017.80;1720212;83;21242;-41
2022/09/06 00:53:54;;;;;;;27.75;16.60;;;;;;;9.61;58.06;100230.91;1720685;83;21045;-41
2022/09/06 00:56:22;;;;;;;26.42;16.07;;;;;;;9.60;58.05;100232.03;1720473;83;21014;-41
2022/09/06 00:58:49;;;;;;;27.98;17.30;;;;;;;9.58;58.03;100234.29;1720371;83;21007;-41
2022/09/06 01:01:15;;;;;;;29.65;17.62;;;;;;;9.57;57.99;100238.11;1720440;83;21089;-41
2022/09/06 01:03:42;;;;;;;27.93;15.93;;;;;;;9.52;57.98;100235.61;1720465;83;21331;-41
2022/09/06 01:06:25;;;;;;;26.82;17.48;;;;;;;9.48;58.00;100238.19;1720221;83;21016;-41
2022/09/06 01:09:21;;;;;;;27.95;16.40;;;;;;;9.46;58.05;100236.92;1720222;83;21080;-41
2022/09/06 01:12:14;;;;;;;29.15;16.62;;;;;;;9.39;58.18;100234.73;1720577;83;21025;-41
2022/09/06 01:14:56;;;;;;;28.42;16.45;;;;;;;9.35;58.46;100236.52;1720221;83;21037;-41
2022/09/06 01:18:07;;;;;;;24.72;16.37;;;;;;;9.28;58.58;100237.62;1719850;83;21151;-41
2022/09/06 01:20:59;;;;;;;30.08;16.17;;;;;;;9.25;58.79;100232.84;1720240;83;21669;-41
2022/09/06 01:23:37;;;;;;;31.60;16.10;;;;;;;9.21;58.88;100243.30;1720528;83;21100;-41
2022/09/06 01:26:41;;;;;;;27.40;16.90;;;;;;;9.16;58.98;100243.73;1719467;83;21575;-41
2022/09/06 01:29:20;;;;;;;30.15;17.57;;;;;;;9.13;59.11;100247.10;1720341;83;21037;-41
2022/09/06 01:31:54;;;;;;;29.57;16.47;;;;;;;9.11;59.44;100258.00;1673006;83;21163;-41
2022/09/06 01:34:29;;;;;;;31.85;17.45;;;;;;;9.09;59.48;100244.83;1720481;83;21180;-41
2022/09/06 01:37:02;;;;;;;26.75;15.75;;;;;;;9.09;59.54;100247.53;1720438;83;21032;-41
2022/09/06 01:39:32;;;;;;;27.70;15.95;;;;;;;9.12;59.63;100256.89;1720424;83;21029;-41
2022/09/06 01:42:06;;;;;;;31.40;16.40;;;;;;;9.21;59.49;100244.66;1720477;83;21025;-41
2022/09/06 01:44:32;;;;;;;28.00;16.45;;;;;;;9.30;59.30;100250.80;1720623;83;21603;-41
2022/09/06 01:47:43;;;;;;;26.93;16.87;;;;;;;9.31;59.11;100248.33;1720318;83;21092;-41
2022/09/06 01:50:44;;;;;;;31.20;17.12;;;;;;;9.31;59.10;100247.77;1701261;83;21037;-41
2022/09/06 01:53:38;;;;;;;27.42;16.25;;;;;;;9.28;59.02;100249.00;1699448;83;21600;-41
2022/09/06 01:56:30;;;;;;;32.88;17.60;;;;;;;9.24;58.96;100260.25;1699502;84;21026;-41
2022/09/06 01:59:11;;;;;;;27.65;16.85;;;;;;;9.19;58.96;100255.03;1699404;84;21250;-41
2022/09/06 02:01:53;;;;;;;30.82;17.60;;;;;;;9.14;58.85;100256.81;1699330;84;21031;-41
2022/09/06 02:04:41;;;;;;;33.65;17.17;;;;;;;9.10;58.82;100257.80;1699248;84;21046;-41
2022/09/06 02:07:25;;;;;;;27.75;16.77;;;;;;;9.04;59.06;100259.89;1699653;84;21540;-41
2022/09/06 02:10:06;;;;;;;26.95;16.60;;;;;;;8.98;59.22;100259.84;1699076;84;21536;-41
2022/09/06 02:12:36;;;;;;;29.60;16.27;;;;;;;8.94;59.40;100262.97;1699771;83;21227;-41
2022/09/06 02:15:25;;;;;;;28.55;16.05;;;;;;;8.90;59.62;100259.89;1699760;84;21003;-41
2022/09/06 02:18:05;;;;;;;29.23;16.05;;;;;;;8.87;59.58;100260.52;1699935;84;21485;-41
2022/09/06 02:20:35;;;;;;;31.65;15.38;;;;;;;8.82;59.69;100266.91;1699658;84;21017;-41
2022/09/06 02:23:05;;;;;;;27.80;15.78;;;;;;;8.78;59.74;100261.92;1699881;83;21058;-41
2022/09/06 02:25:39;;;;;;;27.82;15.65;;;;;;;8.76;59.84;100267.44;1699495;84;21254;-41
2022/09/06 02:28:08;;;;;;;26.93;15.85;;;;;;;8.71;59.91;100269.76;1699652;84;20966;-40
2022/09/06 02:30:39;;;;;;;25.60;15.38;;;;;;;8.66;59.89;100263.98;1679220;84;21031;-41
2022/09/06 02:33:13;;;;;;;26.07;15.28;;;;;;;8.65;59.95;100264.30;1699559;84;21556;-41
2022/09/06 02:35:49;;;;;;;22.67;14.75;;;;;;;8.61;59.86;100270.12;1699403;83;21046;-41
2022/09/06 02:38:16;;;;;;;23.27;15.00;;;;;;;8.59;59.93;100270.98;1699398;84;21156;-41
2022/09/06 02:40:43;;;;;;;25.57;15.20;;;;;;;8.56;59.98;100263.53;1699378;84;21944;-41
2022/09/06 02:43:11;;;;;;;26.48;14.70;;;;;;;8.53;60.04;100266.86;1699181;84;21519;-41
2022/09/06 02:45:37;;;;;;;25.10;13.88;;;;;;;8.51;60.13;100265.06;1699395;83;21551;-40
2022/09/06 02:48:04;;;;;;;25.85;14.73;;;;;;;8.50;60.24;100269.67;1699649;84;21628;-41
2022/09/06 02:50:30;;;;;;;24.07;14.25;;;;;;;8.57;60.16;100261.05;1704846;84;21239;-41
2022/09/06 02:53:08;;;;;;;29.25;14.58;;;;;;;8.60;60.11;100257.71;1695714;84;21018;-41
2022/09/06 02:55:36;;;;;;;27.55;15.18;;;;;;;8.62;60.02;100262.22;1700405;84;21038;-41
2022/09/06 02:58:04;;;;;;;27.95;15.50;;;;;;;8.63;59.88;100263.81;1700703;83;21030;-41
2022/09/06 03:00:30;;;;;;;25.95;15.20;;;;;;;8.61;59.85;100264.16;1695362;83;21540;-41
2022/09/06 03:02:57;;;;;;;28.55;15.95;;;;;;;8.63;59.85;100267.86;1700483;83;21857;-41
2022/09/06 03:05:25;;;;;;;29.57;14.20;;;;;;;8.63;59.84;100265.16;1700373;83;21516;-41
2022/09/06 03:07:53;;;;;;;24.67;13.98;;;;;;;8.61;59.69;100267.41;1700461;84;21532;-41
2022/09/06 03:10:21;;;;;;;25.23;15.15;;;;;;;8.59;59.75;100274.48;1700523;84;21039;-41
2022/09/06 03:12:47;;;;;;;28.12;14.20;;;;;;;8.56;59.84;100275.70;1700596;84;21073;-41
2022/09/06 03:15:15;;;;;;;25.65;15.03;;;;;;;8.55;59.92;100275.45;1700380;83;23174;-41
2022/09/06 03:17:42;;;;;;;26.82;14.75;;;;;;;8.50;59.88;100275.08;1700769;84;21009;-41
2022/09/06 03:20:10;;;;;;;25.68;14.65;;;;;;;8.48;60.07;100271.89;1700604;83;20983;-41
2022/09/06 03:22:38;;;;;;;23.42;13.90;;;;;;;8.47;60.05;100274.94;1700894;84;21044;-41
2022/09/06 03:25:07;;;;;;;26.33;14.68;;;;;;;8.44;60.03;100280.97;1700678;83;21051;-41
2022/09/06 03:27:34;;;;;;;28.38;14.87;;;;;;;8.39;60.30;100276.53;1700653;84;21564;-41
2022/09/06 03:30:01;;;;;;;34.15;16.57;;;;;;;8.37;60.54;100280.13;1700601;84;21517;-40
2022/09/06 03:32:28;;;;;;;32.50;16.75;;;;;;;8.38;60.79;100274.94;1700548;84;21027;-41
2022/09/06 03:34:55;;;;;;;39.38;21.45;;;;;;;8.42;60.99;100280.52;1700489;84;20995;-41
2022/09/06 03:37:21;;;;;;;48.70;26.60;;;;;;;8.50;61.13;100290.49;1700411;83;21331;-41
2022/09/06 03:39:48;;;;;;;37.60;21.45;;;;;;;8.60;61.11;100288.80;1700239;84;23256;-41
2022/09/06 03:42:15;;;;;;;32.93;17.35;;;;;;;8.64;60.75;100289.17;1700097;84;21557;-41
2022/09/06 03:44:41;;;;;;;29.23;17.02;;;;;;;8.68;60.76;100286.05;1700398;84;20974;-41
2022/09/06 03:47:08;;;;;;;29.18;16.75;;;;;;;8.75;60.58;100286.12;1700407;84;21553;-41
2022/09/06 03:49:35;;;;;;;23.57;14.10;;;;;;;8.82;60.52;100298.00;1700332;83;21857;-41
2022/09/06 03:52:03;;;;;;;24.40;14.13;;;;;;;8.90;60.54;100295.05;1700212;84;23169;-41
2022/09/06 03:54:29;;;;;;;23.22;14.87;;;;;;;8.93;60.41;100301.94;1700229;84;20971;-41
2022/09/06 03:56:56;;;;;;;25.40;15.58;;;;;;;8.94;60.15;100302.18;1700376;84;20982;-41
2022/09/06 03:59:23;;;;;;;27.67;15.18;;;;;;;8.91;60.33;100305.52;1700165;84;21042;-41
2022/09/06 04:02:29;;;;;;;27.40;16.50;;;;;;;8.89;60.43;100309.12;1835966;78;22614;-40
2022/09/06 04:04:56;;;;;;;29.37;16.17;;;;;;;8.79;60.58;100305.42;1805851;79;20998;-40
2022/09/06 04:07:23;;;;;;;26.40;15.23;;;;;;;8.80;60.70;100315.13;1805914;79;21572;-40
2022/09/06 04:09:50;;;;;;;28.75;16.37;;;;;;;8.80;60.86;100316.48;1805628;79;21491;-40
2022/09/06 04:12:16;;;;;;;31.27;16.27;;;;;;;8.81;61.08;100318.04;1805654;79;21481;-40
2022/09/06 04:14:44;;;;;;;32.30;16.77;;;;;;;8.87;61.33;100318.10;1805791;79;21146;-40
2022/09/06 04:17:13;;;;;;;30.72;17.05;;;;;;;9.00;61.47;100317.67;1805710;79;20974;-40
2022/09/06 04:19:40;;;;;;;28.70;16.37;;;;;;;9.11;61.26;100314.25;1805942;79;21128;-40
2022/09/06 04:22:07;;;;;;;28.30;16.48;;;;;;;9.21;60.98;100313.09;1805887;79;20927;-40
2022/09/06 04:24:34;;;;;;;29.87;16.10;;;;;;;9.30;60.97;100308.97;1805908;79;21002;-40
2022/09/06 04:27:00;;;;;;;28.57;15.93;;;;;;;9.39;60.75;100313.22;1805866;79;21046;-40
2022/09/06 04:29:27;;;;;;;30.37;17.10;;;;;;;9.46;60.63;100316.20;1805924;79;21058;-40
2022/09/06 04:31:54;;;;;;;25.77;15.28;;;;;;;9.50;60.46;100313.07;1805851;79;21191;-40
2022/09/06 04:34:21;;;;;;;28.10;16.62;;;;;;;9.57;60.45;100311.20;1806035;79;21513;-40
2022/09/06 04:36:47;;;;;;;26.87;16.15;;;;;;;9.63;60.35;100301.77;1805962;79;20950;-40
2022/09/06 04:39:14;;;;;;;25.27;14.43;;;;;;;9.73;60.20;100301.34;1806074;79;21485;-40
2022/09/06 04:41:41;;;;;;;26.27;14.90;;;;;;;9.78;60.12;100306.57;1805659;79;21513;-40
2022/09/06 04:44:08;;;;;;;23.40;13.15;;;;;;;9.88;60.26;100306.73;1805981;79;21293;-40
2022/09/06 04:46:35;;;;;;;21.42;13.18;;;;;;;9.96;60.04;100297.20;1805830;79;21007;-40
2022/09/06 04:49:02;;;;;;;22.13;12.50;;;;;;;10.06;59.60;100303.33;1805773;79;21029;-40
2022/09/06 04:51:30;;;;;;;20.60;12.07;;;;;;;10.10;59.08;100308.31;1805639;79;21042;-40
2022/09/06 04:53:57;;;;;;;24.52;11.38;;;;;;;10.12;58.86;100304.72;1805762;79;21540;-40
2022/09/06 04:56:25;;;;;;;21.65;11.65;;;;;;;10.16;58.64;100304.30;1805699;79;21115;-40
2022/09/06 04:58:53;;;;;;;19.27;10.38;;;;;;;10.20;58.35;100307.93;1805596;79;21246;-40
2022/09/06 05:01:20;;;;;;;19.23;10.50;;;;;;;10.23;58.20;100303.98;1802316;79;21027;-40
2022/09/06 05:03:47;;;;;;;15.85;10.55;;;;;;;10.29;58.17;100303.21;1797674;79;20996;-40
2022/09/06 05:06:20;;;;;;;21.60;10.93;;;;;;;10.37;58.35;100305.03;1797588;79;21074;-40
2022/09/06 05:08:47;;;;;;;17.35;11.15;;;;;;;10.45;58.37;100307.68;1797721;79;21181;-40
2022/09/06 05:11:14;;;;;;;19.80;10.98;;;;;;;10.56;58.61;100309.94;1797404;79;20955;-40
2022/09/06 05:13:41;;;;;;;21.73;11.30;;;;;;;10.65;58.37;100310.06;1797077;79;21086;-40
2022/09/06 05:16:08;;;;;;;22.55;10.93;;;;;;;10.72;57.72;100313.03;1797072;79;20944;-40
2022/09/06 05:18:35;;;;;;;15.68;10.23;;;;;;;10.81;57.32;100319.70;1766023;79;21055;-40
2022/09/06 05:21:02;;;;;;;18.35;9.98;;;;;;;10.89;57.43;100315.52;1797108;79;21136;-40
2022/09/06 05:23:29;;;;;;;18.30;9.98;;;;;;;11.00;57.22;100314.52;1796744;79;20892;-40
2022/09/06 05:25:57;;;;;;;16.25;9.95;;;;;;;11.11;56.55;100312.15;1797290;79;20951;-40
2022/09/06 05:28:24;;;;;;;17.05;10.82;;;;;;;11.21;56.63;100312.49;1796752;79;21531;-40
2022/09/06 05:30:51;;;;;;;13.95;9.28;;;;;;;11.29;56.48;100308.06;1796998;79;20992;-40
2022/09/06 05:33:21;;;;;;;15.03;9.55;;;;;;;11.38;56.37;100312.80;1796976;79;21139;-40
2022/09/06 05:35:48;;;;;;;17.40;9.20;;;;;;;11.48;55.97;100304.19;1797226;79;20947;-40
2022/09/06 05:38:14;;;;;;;16.20;9.03;;;;;;;11.62;55.29;100303.25;1797126;79;20959;-40
2022/09/06 05:40:41;;;;;;;17.90;9.33;;;;;;;11.73;55.18;100303.60;1797146;79;21074;-40
2022/09/06 05:43:08;;;;;;;17.80;9.23;;;;;;;11.83;54.91;100305.84;1797302;79;21066;-40
2022/09/06 05:45:35;;;;;;;14.83;8.93;;;;;;;11.95;54.99;100307.73;1797387;79;22031;-40
2022/09/06 05:48:02;;;;;;;14.00;8.45;;;;;;;12.01;54.43;100296.82;1797224;79;21560;-40
2022/09/06 05:50:29;;;;;;;13.88;7.47;;;;;;;12.08;54.35;100303.83;1797163;79;21006;-40
2022/09/06 05:52:56;;;;;;;14.18;8.00;;;;;;;12.18;53.86;100303.34;1797262;79;20982;-40
2022/09/06 05:55:23;;;;;;;14.13;6.92;;;;;;;12.26;53.20;100310.54;1797145;79;21246;-40
2022/09/06 05:57:50;;;;;;;11.45;6.92;;;;;;;12.34;53.00;100310.97;1796839;79;23212;-40
2022/09/06 06:00:17;;;;;;;8.25;5.72;;;;;;;12.43;52.33;100305.37;1796856;79;20978;-40
2022/09/06 06:02:47;;;;;;;12.28;6.15;;;;;;;12.53;52.24;100313.81;1796837;79;21086;-40
2022/09/06 06:05:15;;;;;;;9.43;5.37;;;;;;;12.61;51.77;100307.41;1797351;79;20967;-40
2022/09/06 06:07:43;;;;;;;8.95;4.72;;;;;;;12.73;51.42;100311.20;1797055;79;21025;-40
2022/09/06 06:10:10;;;;;;;10.70;5.05;;;;;;;12.84;50.39;100308.16;1796928;79;21115;-40
2022/09/06 06:12:38;;;;;;;6.83;4.58;;;;;;;12.96;49.34;100312.16;1792260;79;20919;-42
2022/09/06 06:15:07;;;;;;;7.67;4.15;;;;;;;13.06;49.36;100314.35;1796960;79;20924;-40
2022/09/06 06:17:34;;;;;;;6.92;4.22;;;;;;;13.18;48.69;100308.03;1797061;79;21031;-40
2022/09/06 06:20:02;;;;;;;7.85;4.28;;;;;;;13.30;48.37;100312.81;1796991;79;20915;-40
2022/09/06 06:22:29;;;;;;;8.28;4.10;;;;;;;13.43;48.26;100315.64;1796986;79;21207;-40
2022/09/06 06:24:55;;;;;;;6.47;4.33;;;;;;;13.58;47.91;100315.95;1796823;79;20924;-40
2022/09/06 06:27:22;;;;;;;6.10;3.67;;;;;;;13.72;48.07;100316.25;1796824;79;21010;-40
2022/09/06 06:29:49;;;;;;;5.17;3.22;;;;;;;13.66;47.79;100286.34;1797163;79;20979;-40
2022/09/06 06:32:16;;;;;;;7.22;3.22;;;;;;;13.95;46.95;100317.12;1796968;79;21007;-40
2022/09/06 06:34:43;;;;;;;5.55;2.50;;;;;;;14.03;46.05;100320.80;1796849;79;21033;-40
2022/09/06 06:37:09;;;;;;;5.25;2.52;;;;;;;14.14;45.90;100323.15;1796886;79;21070;-40
2022/09/06 06:39:37;;;;;;;3.27;1.98;;;;;;;14.25;45.46;100326.31;1796872;79;20927;-41
2022/09/06 06:42:04;;;;;;;5.83;2.67;;;;;;;14.37;45.67;100319.95;1796896;79;20951;-40
2022/09/06 06:44:33;;;;;;;2.45;2.08;;;;;;;14.50;45.20;100321.36;1796147;79;21075;-40
2022/09/06 06:47:01;;;;;;;4.10;2.50;;;;;;;14.57;44.60;100315.25;1797037;79;21128;-41
2022/09/06 06:49:29;;;;;;;4.12;2.50;;;;;;;14.61;43.62;100322.92;1796795;79;21012;-40
2022/09/06 06:51:56;;;;;;;4.95;3.00;;;;;;;14.65;43.98;100323.77;1796967;79;20999;-40
2022/09/06 06:54:22;;;;;;;4.95;2.92;;;;;;;14.71;43.86;100324.48;1796763;79;21013;-40
2022/09/06 06:56:49;;;;;;;4.05;3.05;;;;;;;14.75;43.50;100320.44;1796849;79;20983;-40
2022/09/06 06:59:15;;;;;;;3.27;2.10;;;;;;;14.76;42.71;100332.94;1796710;79;21109;-40
2022/09/06 07:01:44;;;;;;;3.22;2.12;;;;;;;14.77;41.86;100330.41;1796933;79;21544;-41
2022/09/06 07:04:11;;;;;;;3.00;1.80;;;;;;;14.79;41.86;100328.11;1797231;79;21084;-40
2022/09/06 07:06:53;;;;;;;2.80;1.92;;;;;;;14.85;40.77;100332.70;1797076;79;21035;-40
2022/09/06 07:09:20;;;;;;;4.72;3.00;;;;;;;14.87;41.34;100329.80;1797155;79;21521;-40
2022/09/06 07:11:52;;;;;;;6.55;3.98;;;;;;;14.97;41.82;100335.23;1797335;79;21483;-40
2022/09/06 07:14:17;;;;;;;7.25;4.10;;;;;;;15.08;42.12;100336.98;1784926;78;20992;-40
2022/09/06 07:16:46;;;;;;;5.70;3.70;;;;;;;15.11;41.15;100330.78;1781042;80;20944;-40
2022/09/06 07:19:13;;;;;;;5.83;3.50;;;;;;;15.10;41.17;100334.66;1780763;80;21344;-41
2022/09/06 07:21:40;;;;;;;5.58;3.20;;;;;;;15.16;41.47;100331.84;1780985;80;20985;-40
2022/09/06 07:24:07;;;;;;;5.80;3.42;;;;;;;15.25;41.41;100332.19;1780971;80;21310;-41
2022/09/06 07:26:35;;;;;;;6.75;3.00;;;;;;;15.30;40.64;100330.50;1780684;80;20940;-41
2022/09/06 07:29:03;;;;;;;3.70;2.75;;;;;;;15.36;39.95;100334.48;1781053;80;21019;-40
2022/09/06 07:31:31;;;;;;;4.03;2.77;;;;;;;15.40;39.67;100329.28;1781238;80;20964;-40
2022/09/06 07:33:58;;;;;;;3.20;2.62;;;;;;;15.46;40.17;100325.66;1780983;80;21071;-41
2022/09/06 07:36:25;;;;;;;3.58;2.50;;;;;;;15.52;39.48;100325.58;1780896;80;21128;-41
2022/09/06 07:38:53;;;;;;;3.40;2.33;;;;;;;15.52;39.75;100329.11;1780763;80;20988;-41
2022/09/06 07:41:19;;;;;;;3.33;2.10;;;;;;;14.29;39.38;100145.78;1780899;80;20932;-41
2022/09/06 07:43:47;;;;;;;3.02;2.17;;;;;;;15.58;39.57;100327.64;1780975;80;21024;-41
2022/09/06 07:46:16;;;;;;;3.33;2.40;;;;;;;15.60;39.53;100334.09;1780643;80;21550;-40
2022/09/06 07:48:45;;;;;;;4.97;2.83;;;;;;;15.63;39.56;100333.36;1780844;80;21915;-40
2022/09/06 07:51:19;;;;;;;4.50;2.60;;;;;;;15.75;40.08;100330.97;1781275;80;21013;-41
2022/09/06 07:53:50;;;;;;;5.03;3.27;;;;;;;15.90;39.17;100336.26;1780838;80;20929;-40
2022/09/06 07:56:17;;;;;;;2.80;2.37;;;;;;;15.86;38.66;100338.74;1781153;80;20991;-41
2022/09/06 07:58:43;;;;;;;3.65;2.55;;;;;;;15.79;38.40;100335.33;1780768;80;20952;-41
2022/09/06 08:01:37;;;;;;;3.85;2.58;;;;;;;15.74;38.45;100329.38;1780716;80;21338;-41
2022/09/06 08:04:13;;;;;;;3.37;2.20;;;;;;;15.79;38.29;100328.48;1780735;80;20932;-40
2022/09/06 08:06:45;;;;;;;2.70;2.10;;;;;;;15.82;38.13;100320.14;1780750;80;20998;-41
2022/09/06 08:09:12;;;;;;;2.67;2.00;;;;;;;15.96;37.62;100317.00;1780913;80;21008;-41
2022/09/06 08:11:40;;;;;;;2.40;1.95;;;;;;;16.13;37.27;100314.26;1780678;80;21542;-41
2022/09/06 08:14:07;;;;;;;2.72;1.90;;;;;;;16.22;37.07;100318.86;1780729;80;21065;-41
2022/09/06 08:16:36;;;;;;;1.77;1.40;;;;;;;16.19;36.67;100311.98;1780469;80;20983;-41
2022/09/06 08:19:11;;;;;;;4.53;1.50;;;;;;;16.14;36.15;100319.94;1780668;80;20944;-41
2022/09/06 08:21:34;;;;;;;2.52;1.80;;;;;;;16.11;36.38;100315.80;1779569;80;21012;-41
2022/09/06 08:24:03;;;;;;;1.87;1.50;;;;;;;16.09;36.75;100322.43;1780698;80;21035;-41
2022/09/06 08:26:32;;;;;;;3.27;2.00;;;;;;;16.12;36.53;100320.88;1780879;80;21208;-41
2022/09/06 08:29:01;;;;;;;3.20;1.77;;;;;;;16.23;36.38;100325.91;1780692;80;20995;-41
2022/09/06 08:31:30;;;;;;;2.30;1.92;;;;;;;16.36;36.37;100308.06;1781206;80;20995;-41
2022/09/06 08:33:58;;;;;;;2.72;1.80;;;;;;;16.55;36.10;100306.31;1781001;80;20980;-41
2022/09/06 08:36:30;;;;;;;3.47;2.10;;;;;;;16.73;36.01;100299.87;1780668;80;21024;-41
2022/09/06 08:38:58;;;;;;;2.83;1.50;;;;;;;16.82;35.82;100303.66;1780681;80;22135;-41
2022/09/06 08:42:01;;;;;;;4.83;3.08;;;;;;;16.99;35.78;100302.24;1775708;80;20922;-41
2022/09/06 08:44:34;;;;;;;4.78;3.12;;;;;;;17.19;35.66;100298.06;1780662;80;21007;-41
2022/09/06 08:47:10;;;;;;;4.47;3.00;;;;;;;17.24;34.82;100289.48;1780925;80;20996;-41
2022/09/06 08:49:46;;;;;;;3.98;2.87;;;;;;;17.24;34.81;100290.86;1780798;80;21079;-41
2022/09/06 08:52:45;;;;;;;4.80;3.00;;;;;;;17.09;34.30;100286.47;1781195;80;21128;-41
2022/09/06 08:55:17;;;;;;;5.90;3.25;;;;;;;16.98;35.43;100281.48;1780673;80;21547;-41
2022/09/06 08:57:59;;;;;;;4.17;3.10;;;;;;;16.88;35.74;100279.66;1780672;80;20995;-41
2022/09/06 09:00:26;;;;;;;4.60;2.37;;;;;;;16.87;35.30;100278.66;1780904;80;20995;-41
2022/09/06 09:03:04;;;;;;;4.35;3.17;;;;;;;16.85;35.55;100281.77;1752556;80;21097;-41
2022/09/06 09:05:33;;;;;;;4.62;3.20;;;;;;;16.88;35.78;100281.61;1780872;79;21234;-41
2022/09/06 09:08:19;;;;;;;5.28;3.20;;;;;;;16.87;35.62;100276.70;1781036;79;21005;-41
2022/09/06 09:10:54;;;;;;;3.77;2.70;;;;;;;16.79;35.61;100279.77;1780786;79;21001;-41
2022/09/06 09:13:45;;;;;;;4.03;2.80;;;;;;;16.69;35.85;100267.56;1780727;80;21786;-41
2022/09/06 09:16:15;;;;;;;5.72;2.60;;;;;;;16.67;35.68;100269.88;1780934;80;20938;-41
2022/09/06 09:18:46;;;;;;;3.42;2.58;;;;;;;16.86;35.83;100264.17;1781044;80;21932;-41
2022/09/06 09:21:15;;;;;;;2.85;2.00;;;;;;;17.24;35.69;100260.71;1780859;80;21012;-41
2022/09/06 09:23:42;;;;;;;2.85;2.05;;;;;;;17.59;34.40;100251.35;1780970;80;21590;-41
2022/09/06 09:26:13;;;;;;;3.83;2.42;;;;;;;17.83;33.85;100247.72;1781070;79;21024;-41
2022/09/06 09:29:03;;;;;;;3.98;2.83;;;;;;;17.97;33.31;100254.63;1781139;80;21021;-41
2022/09/06 09:31:40;;;;;;;;;;;;;;;18.14;33.61;100247.05;1783670;80;21220;-41
2022/09/06 09:34:12;;;;;;;2.90;2.42;;;;;;;18.30;33.19;100249.44;1779623;80;20153;-41
2022/09/06 09:36:39;;;;;;;4.95;3.05;;;;;;;18.28;32.49;100252.56;1781160;80;21468;-41
2022/09/06 09:39:11;;;;;;;4.53;3.37;;;;;;;18.30;32.50;100252.94;1780923;80;20978;-41
2022/09/06 09:41:40;;;;;;;5.30;3.50;;;;;;;18.28;32.37;100250.40;1781158;80;21279;-41
2022/09/06 09:44:12;;;;;;;5.33;3.58;;;;;;;18.18;32.10;100251.95;1781036;80;21225;-41
2022/09/06 09:46:40;;;;;;;6.12;2.92;;;;;;;18.06;32.79;100253.67;1780058;80;20949;-41
2022/09/06 09:49:11;;;;;;;6.40;3.90;;;;;;;17.95;32.41;100255.62;1780706;80;21017;-41
2022/09/06 09:51:41;;;;;;;5.97;4.10;;;;;;;17.86;33.19;100255.20;1781029;80;21013;-41
2022/09/06 09:54:11;;;;;;;6.65;4.30;;;;;;;17.69;32.76;100256.68;1780855;80;21024;-41
2022/09/06 09:56:53;;;;;;;7.65;4.47;;;;;;;17.53;33.27;100261.66;1781086;80;21193;-41
2022/09/06 09:59:31;;;;;;;8.88;6.00;;;;;;;17.31;33.96;100260.77;1780519;80;21532;-41
2022/09/06 10:02:00;;;;;;;10.38;6.40;;;;;;;17.14;34.26;100263.59;1780716;80;21068;-41
2022/09/06 10:04:36;;;;;;;10.63;7.05;;;;;;;17.01;34.47;100258.22;1788898;80;21598;-41
2022/09/06 10:07:17;;;;;;;9.83;7.17;;;;;;;16.91;34.56;100261.08;1789473;79;21028;-41
2022/09/06 10:09:57;;;;;;;12.65;7.08;;;;;;;16.81;35.01;100261.78;1788995;80;21973;-41
2022/09/06 10:12:37;;;;;;;14.33;9.05;;;;;;;16.78;35.06;100270.77;1770319;80;21533;-41
2022/09/06 10:15:08;;;;;;;18.50;10.65;;;;;;;16.81;35.15;100260.99;1789032;80;21037;-41
2022/09/06 10:17:50;;;;;;;21.10;13.98;;;;;;;16.79;35.46;100258.66;1785601;80;21079;-41
2022/09/06 10:20:17;;;;;;;25.12;13.50;;;;;;;16.77;35.45;100256.87;1788421;79;20977;-41
2022/09/06 10:23:07;;;;;;;24.02;12.93;;;;;;;16.72;35.68;100266.80;1788996;80;21134;-41
2022/09/06 10:25:46;;;;;;;24.02;14.78;;;;;;;16.67;35.71;100260.30;1789129;79;21621;-41
2022/09/06 10:28:40;;;;;;;27.65;17.98;;;;;;;16.60;35.96;100258.89;1788986;79;22049;-41
2022/09/06 10:31:37;;;;;;;37.00;21.90;;;;;;;16.53;36.83;100260.94;1789110;79;20973;-41
2022/09/06 10:34:52;;;;;;;41.77;26.50;;;;;;;16.45;36.64;100265.36;1788880;79;20997;-41
2022/09/06 10:37:30;;;;;;;42.95;24.92;;;;;;;16.31;36.77;100267.96;1788882;79;21140;-41
2022/09/06 10:40:08;;;;;;;39.40;25.05;;;;;;;16.12;37.11;100262.67;1789277;79;21523;-41
2022/09/06 10:42:48;;;;;;;38.13;24.07;;;;;;;16.00;37.38;100260.39;1789150;80;21060;-41
2022/09/06 10:45:55;;;;;;;34.58;23.30;;;;;;;15.94;37.56;100264.61;1769359;80;21013;-41
2022/09/06 10:48:37;;;;;;;36.63;21.97;;;;;;;15.88;38.08;100267.47;1789387;79;21530;-41
2022/09/06 10:51:27;;;;;;;29.57;19.57;;;;;;;15.88;37.81;100264.73;1789681;79;21085;-41
2022/09/06 10:54:09;;;;;;;29.18;18.27;;;;;;;15.95;37.72;100264.04;1789141;80;21546;-41
2022/09/06 10:56:52;;;;;;;25.20;16.90;;;;;;;16.03;37.67;100256.91;1787393;80;21054;-41
2022/09/06 10:59:40;;;;;;;21.40;13.83;;;;;;;16.15;37.54;100260.55;1784227;79;20950;-41
2022/09/06 11:02:37;;;;;;;28.75;18.80;;;;;;;16.29;37.58;100253.86;1789052;79;21032;-41
2022/09/06 11:05:19;;;;;;;20.05;13.53;;;;;;;16.47;37.98;100254.22;1789127;79;23193;-41
2022/09/06 11:08:07;;;;;;;18.48;11.33;;;;;;;16.71;37.57;100257.00;1789179;79;21072;-41
2022/09/06 11:10:42;;;;;;;14.00;9.60;;;;;;;16.91;37.03;100255.60;1789126;79;21008;-41
2022/09/06 11:13:18;;;;;;;15.38;8.55;;;;;;;17.02;35.97;100253.53;1789137;80;21076;-41
2022/09/06 11:16:03;;;;;;;13.13;7.17;;;;;;;17.04;35.93;100249.84;1789178;80;21380;-41
2022/09/06 11:18:58;;;;;;;15.20;8.75;;;;;;;17.12;36.04;100253.61;1789072;80;21953;-41
2022/09/06 11:21:46;;;;;;;16.12;10.80;;;;;;;17.24;36.05;100247.80;1788877;79;20949;-41
2022/09/06 11:24:27;;;;;;;16.70;11.25;;;;;;;17.34;36.06;100251.19;1788564;79;21060;-41
2022/09/06 11:27:06;;;;;;;16.42;10.48;;;;;;;17.27;36.12;100248.42;1789260;80;21543;-41
2022/09/06 11:29:33;;;;;;;10.00;6.40;;;;;;;17.14;36.57;100253.20;1788817;79;21056;-41
2022/09/06 11:32:02;;;;;;;9.58;5.72;;;;;;;17.07;36.87;100250.44;1788930;80;21307;-41
2022/09/06 11:34:34;;;;;;;8.43;4.30;;;;;;;16.95;36.53;100256.41;1789248;79;20957;-41
2022/09/06 11:37:05;;;;;;;6.75;3.77;;;;;;;16.82;37.15;100249.67;1788997;79;21624;-41
2022/09/06 11:39:38;;;;;;;4.42;2.90;;;;;;;16.70;36.86;100249.95;1788975;79;20957;-41
2022/09/06 11:42:11;;;;;;;3.75;2.77;;;;;;;16.61;37.19;100252.80;1789097;80;21024;-41
2022/09/06 11:45:07;;;;;;;5.12;2.35;;;;;;;16.58;37.03;100255.72;1788905;80;23155;-41